createdAt,value
2019-05-10T00:01:22.096Z,11.30
2019-05-10T00:04:08.074Z,11.30
2019-05-10T00:06:54.044Z,11.30
2019-05-10T00:09:21.390Z,11.30
2019-05-10T00:11:50.907Z,11.30
2019-05-10T00:14:29.397Z,11.30
2019-05-10T00:16:59.014Z,11.30
2019-05-10T00:19:26.632Z,11.30
2019-05-10T00:21:54.073Z,11.20
2019-05-10T00:24:21.838Z,11.20
2019-05-10T00:26:49.460Z,11.10
2019-05-10T00:29:16.931Z,9.70
2019-05-10T00:31:44.585Z,11.00
2019-05-10T00:34:12.132Z,10.90
2019-05-10T00:36:39.747Z,10.90
2019-05-10T00:39:07.213Z,11.00
2019-05-10T00:41:34.693Z,11.00
2019-05-10T00:44:02.245Z,11.00
2019-05-10T00:46:29.909Z,11.00
2019-05-10T00:48:57.385Z,11.00
2019-05-10T00:51:26.091Z,11.10
2019-05-10T00:53:53.755Z,11.00
2019-05-10T00:56:22.408Z,11.00
2019-05-10T00:58:49.877Z,11.70
2019-05-10T01:01:18.791Z,11.00
2019-05-10T01:03:46.387Z,11.00
2019-05-10T01:06:13.960Z,11.00
2019-05-10T01:08:41.516Z,11.00
2019-05-10T01:11:09.055Z,11.00
2019-05-10T01:13:36.507Z,11.00
2019-05-10T01:16:04.014Z,11.00
2019-05-10T01:18:31.546Z,11.00
2019-05-10T01:20:59.115Z,11.00
2019-05-10T01:23:26.675Z,10.90
2019-05-10T01:25:54.353Z,11.90
2019-05-10T01:28:21.921Z,10.90
2019-05-10T01:30:49.510Z,10.80
2019-05-10T01:33:17.078Z,10.80
2019-05-10T01:35:44.537Z,11.00
2019-05-10T01:38:12.186Z,10.60
2019-05-10T01:40:40.769Z,11.30
2019-05-10T01:43:08.432Z,10.50
2019-05-10T01:45:36.118Z,10.40
2019-05-10T01:48:03.689Z,10.30
2019-05-10T01:50:31.397Z,10.30
2019-05-10T01:52:59.051Z,10.30
2019-05-10T01:55:26.615Z,10.10
2019-05-10T01:57:54.053Z,10.10
2019-05-10T02:00:21.532Z,10.00
2019-05-10T02:02:49.075Z,10.00
2019-05-10T02:05:16.756Z,9.90
2019-05-10T02:07:44.299Z,10.00
2019-05-10T02:10:11.794Z,10.00
2019-05-10T02:12:39.345Z,9.80
2019-05-10T02:15:07.888Z,9.80
2019-05-10T02:17:35.401Z,9.80
2019-05-10T02:20:05.854Z,9.80
2019-05-10T02:22:33.321Z,9.70
2019-05-10T02:25:00.942Z,9.60
2019-05-10T02:27:28.426Z,9.60
2019-05-10T02:29:56.046Z,9.60
2019-05-10T02:32:23.770Z,9.80
2019-05-10T02:34:51.417Z,9.50
2019-05-10T02:37:18.967Z,9.40
2019-05-10T02:39:46.604Z,9.40
2019-05-10T02:42:14.326Z,9.40
2019-05-10T02:44:41.997Z,9.40
2019-05-10T02:47:09.662Z,9.90
2019-05-10T02:49:37.229Z,9.30
2019-05-10T02:52:04.795Z,9.30
2019-05-10T02:54:32.342Z,9.30
2019-05-10T02:56:59.920Z,9.30
2019-05-10T02:59:27.369Z,9.20
2019-05-10T03:01:55.434Z,9.20
2019-05-10T03:04:23.090Z,9.20
2019-05-10T03:06:54.569Z,9.10
2019-05-10T03:09:25.034Z,9.10
2019-05-10T03:11:52.603Z,9.00
2019-05-10T03:14:20.146Z,9.00
2019-05-10T03:16:51.050Z,9.00
2019-05-10T03:19:19.374Z,8.90
2019-05-10T03:21:56.879Z,9.50
2019-05-10T03:24:27.696Z,8.90
2019-05-10T03:26:54.920Z,8.70
2019-05-10T03:29:22.391Z,8.80
2019-05-10T03:31:50.086Z,8.80
2019-05-10T03:34:17.743Z,8.70
2019-05-10T03:36:45.302Z,8.70
2019-05-10T03:39:13.857Z,8.70
2019-05-10T03:41:41.348Z,8.70
2019-05-10T03:44:08.904Z,8.70
2019-05-10T03:46:36.450Z,8.60
2019-05-10T03:49:04.037Z,8.80
2019-05-10T03:51:31.909Z,8.50
2019-05-10T03:53:59.356Z,8.40
2019-05-10T03:56:29.818Z,8.40
2019-05-10T03:58:56.721Z,8.30
2019-05-10T04:01:24.189Z,8.40
2019-05-10T04:03:51.877Z,8.30
2019-05-10T04:06:19.651Z,9.30
2019-05-10T04:08:47.267Z,8.20
2019-05-10T04:11:14.713Z,8.10
2019-05-10T04:13:42.302Z,8.20
2019-05-10T04:16:10.061Z,7.30
2019-05-10T04:18:37.677Z,8.20
2019-05-10T04:21:05.268Z,8.20
2019-05-10T04:23:32.848Z,8.20
2019-05-10T04:26:00.553Z,7.10
2019-05-10T04:28:28.386Z,8.40
2019-05-10T04:30:56.060Z,8.50
2019-05-10T04:33:23.841Z,8.50
2019-05-10T04:35:51.532Z,8.60
2019-05-10T04:38:20.020Z,8.70
2019-05-10T04:40:47.569Z,8.70
2019-05-10T04:43:15.232Z,8.90
2019-05-10T04:45:42.795Z,9.00
2019-05-10T04:48:10.272Z,9.20
2019-05-10T04:50:37.825Z,9.20
2019-05-10T04:53:05.577Z,9.30
2019-05-10T04:55:34.555Z,9.60
2019-05-10T04:58:02.115Z,9.60
2019-05-10T05:00:30.112Z,9.80
2019-05-10T05:02:57.775Z,10.10
2019-05-10T05:05:25.422Z,10.80
2019-05-10T05:07:53.118Z,12.00
2019-05-10T05:10:20.685Z,12.70
2019-05-10T05:12:48.339Z,13.20
2019-05-10T05:15:16.590Z,14.00
2019-05-10T05:17:44.270Z,14.80
2019-05-10T05:20:11.847Z,15.20
2019-05-10T05:22:39.323Z,15.50
2019-05-10T05:25:06.892Z,15.80
2019-05-10T05:27:34.609Z,16.60
2019-05-10T05:30:04.780Z,16.00
2019-05-10T05:32:32.520Z,16.10
2019-05-10T05:35:00.221Z,15.80
2019-05-10T05:37:27.788Z,16.00
2019-05-10T05:39:55.267Z,16.00
2019-05-10T05:42:28.129Z,15.40
2019-05-10T05:44:52.378Z,15.10
2019-05-10T05:47:19.810Z,14.70
2019-05-10T05:49:47.340Z,14.90
2019-05-10T05:52:16.356Z,14.30
2019-05-10T05:54:43.864Z,14.40
2019-05-10T05:57:11.429Z,14.30
2019-05-10T05:59:38.961Z,14.20
2019-05-10T06:02:07.599Z,14.10
2019-05-10T06:04:40.649Z,14.10
2019-05-10T06:07:05.481Z,14.10
2019-05-10T06:09:37.721Z,14.20
2019-05-10T06:12:07.258Z,14.20
2019-05-10T06:14:32.051Z,14.00
2019-05-10T06:17:00.251Z,13.90
2019-05-10T06:19:29.910Z,14.30
2019-05-10T06:21:58.143Z,14.20
2019-05-10T06:24:26.770Z,14.30
2019-05-10T06:26:58.341Z,14.30
2019-05-10T06:29:23.850Z,14.20
2019-05-10T06:31:51.412Z,13.50
2019-05-10T06:34:18.991Z,13.90
2019-05-10T06:36:46.690Z,14.00
2019-05-10T06:39:14.185Z,14.10
2019-05-10T06:41:42.028Z,13.90
2019-05-10T06:44:09.580Z,13.70
2019-05-10T06:46:37.067Z,13.70
2019-05-10T06:49:08.370Z,13.80
2019-05-10T06:51:34.188Z,13.80
2019-05-10T06:54:01.639Z,13.70
2019-05-10T06:56:29.796Z,13.60
2019-05-10T06:59:11.987Z,13.60
2019-05-10T07:01:27.049Z,13.50
2019-05-10T07:03:54.794Z,13.50
2019-05-10T07:06:22.591Z,13.50
2019-05-10T07:08:51.795Z,13.50
2019-05-10T07:11:19.557Z,13.40
2019-05-10T07:13:52.140Z,13.40
2019-05-10T07:16:23.941Z,13.40
2019-05-10T07:18:46.054Z,13.30
2019-05-10T07:21:13.608Z,13.10
2019-05-10T07:23:44.715Z,13.20
2019-05-10T07:26:10.477Z,13.20
2019-05-10T07:28:37.980Z,13.20
2019-05-10T07:31:05.589Z,13.20
2019-05-10T07:33:37.320Z,13.50
2019-05-10T07:36:02.671Z,13.60
2019-05-10T07:38:31.182Z,13.40
2019-05-10T07:40:59.758Z,13.50
2019-05-10T07:43:29.020Z,13.50
2019-05-10T07:45:58.815Z,13.70
2019-05-10T07:48:26.355Z,13.60
2019-05-10T07:50:53.871Z,13.80
2019-05-10T07:53:22.767Z,13.90
2019-05-10T07:55:50.790Z,13.70
2019-05-10T07:58:18.366Z,13.70
2019-05-10T08:00:46.764Z,13.60
2019-05-10T08:03:18.831Z,13.70
2019-05-10T08:05:46.421Z,13.70
2019-05-10T08:08:13.561Z,13.80
2019-05-10T08:10:41.222Z,13.80
2019-05-10T08:13:09.090Z,13.80
2019-05-10T08:15:38.416Z,13.70
2019-05-10T08:18:06.385Z,13.60
2019-05-10T08:20:46.529Z,13.60
2019-05-10T08:23:03.541Z,13.40
2019-05-10T08:25:39.613Z,13.30
2019-05-10T08:28:03.394Z,13.30
2019-05-10T08:30:36.125Z,13.50
2019-05-10T08:33:09.421Z,13.70
2019-05-10T08:35:35.834Z,14.00
2019-05-10T08:38:04.539Z,14.50
2019-05-10T08:40:36.872Z,15.90
2019-05-10T08:43:07.141Z,16.70
2019-05-10T08:45:32.595Z,15.60
2019-05-10T08:48:05.046Z,16.90
2019-05-10T08:50:48.407Z,17.80
2019-05-10T08:53:02.326Z,19.00
2019-05-10T08:55:28.701Z,18.40
2019-05-10T08:57:56.185Z,17.40
2019-05-10T09:00:41.616Z,17.10
2019-05-10T09:02:53.264Z,17.20
2019-05-10T09:05:28.644Z,18.40
2019-05-10T09:07:52.063Z,18.90
2019-05-10T09:10:22.102Z,18.70
2019-05-10T09:12:53.689Z,18.50
2019-05-10T09:15:19.219Z,18.20
2019-05-10T09:17:46.671Z,18.50
2019-05-10T09:20:21.063Z,19.20
2019-05-10T09:22:43.517Z,19.00
2019-05-10T09:25:12.802Z,18.50
2019-05-10T09:27:42.899Z,18.00
2019-05-10T09:30:14.281Z,17.60
2019-05-10T09:32:39.957Z,17.30
2019-05-10T09:35:09.199Z,16.90
2019-05-10T09:37:36.970Z,16.40
2019-05-10T09:40:09.946Z,16.40
2019-05-10T09:42:39.930Z,16.40
2019-05-10T09:45:05.576Z,16.60
2019-05-10T09:47:33.164Z,16.70
2019-05-10T09:50:02.247Z,16.70
2019-05-10T09:52:30.082Z,17.00
2019-05-10T09:54:58.352Z,17.20
2019-05-10T09:57:27.866Z,17.30
2019-05-10T09:59:57.253Z,17.30
2019-05-10T10:02:32.787Z,17.00
2019-05-10T10:04:58.690Z,17.00
2019-05-10T10:07:24.294Z,16.70
2019-05-10T10:09:53.200Z,16.50
2019-05-10T10:12:20.702Z,16.30
2019-05-10T10:14:48.138Z,16.10
2019-05-10T10:17:18.351Z,15.90
2019-05-10T10:19:47.816Z,15.50
2019-05-10T10:22:15.022Z,15.10
2019-05-10T10:24:42.804Z,15.00
2019-05-10T10:27:10.427Z,15.10
2019-05-10T10:29:38.976Z,15.20
2019-05-10T10:32:07.963Z,15.10
2019-05-10T10:34:41.095Z,15.30
2019-05-10T10:37:07.739Z,15.20
2019-05-10T10:39:37.042Z,15.00
2019-05-10T10:42:08.816Z,15.00
2019-05-10T10:44:33.578Z,14.90
2019-05-10T10:47:01.157Z,14.80
2019-05-10T10:49:31.974Z,14.70
2019-05-10T10:51:58.112Z,14.50
2019-05-10T10:54:30.211Z,14.30
2019-05-10T10:56:59.245Z,14.20
2019-05-10T10:59:24.692Z,14.00
2019-05-10T11:02:25.245Z,13.70
2019-05-10T11:04:24.796Z,13.50
2019-05-10T11:07:08.880Z,13.60
2019-05-10T11:09:22.040Z,13.60
2019-05-10T11:11:51.580Z,13.70
2019-05-10T11:14:20.631Z,13.80
2019-05-10T11:16:52.863Z,13.60
2019-05-10T11:19:17.837Z,13.40
2019-05-10T11:21:45.382Z,13.40
2019-05-10T11:24:17.915Z,13.40
2019-05-10T11:26:44.772Z,13.40
2019-05-10T11:29:13.968Z,13.70
2019-05-10T11:31:41.549Z,13.90
2019-05-10T11:34:09.107Z,14.00
2019-05-10T11:36:40.436Z,14.20
2019-05-10T11:39:06.414Z,14.30
2019-05-10T11:41:34.112Z,14.30
2019-05-10T11:44:07.092Z,14.50
2019-05-10T11:46:31.212Z,14.90
2019-05-10T11:49:01.564Z,14.70
2019-05-10T11:51:31.097Z,14.50
2019-05-10T11:53:59.781Z,14.40
2019-05-10T11:56:28.056Z,14.80
2019-05-10T11:58:56.745Z,16.10
2019-05-10T12:01:24.235Z,16.40
2019-05-10T12:03:52.872Z,16.20
2019-05-10T12:06:21.363Z,16.00
2019-05-10T12:09:04.765Z,16.70
2019-05-10T12:11:55.434Z,17.10
2019-05-10T12:14:36.102Z,17.40
2019-05-10T12:17:06.223Z,17.50
2019-05-10T12:19:44.442Z,17.20
2019-05-10T12:22:04.702Z,17.80
2019-05-10T12:24:46.889Z,17.70
2019-05-10T12:27:25.304Z,17.90
2019-05-10T12:29:31.671Z,18.20
2019-05-10T12:31:59.699Z,17.70
2019-05-10T12:34:27.427Z,17.60
2019-05-10T12:36:57.539Z,17.40
2019-05-10T12:39:24.475Z,17.40
2019-05-10T12:41:53.002Z,17.10
2019-05-10T12:44:21.130Z,17.00
2019-05-10T12:46:50.988Z,17.40
2019-05-10T12:49:17.928Z,17.90
2019-05-10T12:51:45.429Z,18.00
2019-05-10T12:54:12.963Z,18.00
2019-05-10T12:56:43.870Z,18.00
2019-05-10T12:59:09.940Z,18.00
2019-05-10T13:01:37.504Z,17.70
2019-05-10T13:04:13.853Z,17.70
2019-05-10T13:06:34.705Z,17.70
2019-05-10T13:09:05.372Z,17.50
2019-05-10T13:11:32.937Z,17.40
2019-05-10T13:14:01.152Z,17.40
2019-05-10T13:16:29.908Z,17.50
2019-05-10T13:18:57.368Z,17.90
2019-05-10T13:21:24.874Z,18.40
2019-05-10T13:23:53.959Z,18.80
2019-05-10T13:26:21.944Z,18.60
2019-05-10T13:28:49.403Z,18.60
2019-05-10T13:31:16.968Z,18.70
2019-05-10T13:33:44.620Z,18.50
2019-05-10T13:36:12.110Z,18.50
2019-05-10T13:38:44.007Z,18.20
2019-05-10T13:41:08.933Z,18.30
2019-05-10T13:43:36.492Z,18.10
2019-05-10T13:46:04.004Z,18.30
2019-05-10T13:48:31.569Z,18.10
2019-05-10T13:50:59.217Z,18.10
2019-05-10T13:53:26.867Z,18.00
2019-05-10T13:55:54.362Z,17.90
2019-05-10T13:58:22.031Z,17.90
2019-05-10T14:00:49.488Z,17.80
2019-05-10T14:03:17.272Z,17.80
2019-05-10T14:05:44.756Z,17.60
2019-05-10T14:08:12.662Z,17.40
2019-05-10T14:10:40.612Z,17.50
2019-05-10T14:13:08.178Z,17.90
2019-05-10T14:15:35.656Z,17.90
2019-05-10T14:18:03.262Z,17.80
2019-05-10T14:20:30.811Z,17.70
2019-05-10T14:22:59.207Z,17.50
2019-05-10T14:25:29.678Z,17.40
2019-05-10T14:27:57.637Z,17.50
2019-05-10T14:30:25.423Z,17.30
2019-05-10T14:32:53.100Z,17.30
2019-05-10T14:35:22.311Z,17.40
2019-05-10T14:37:49.969Z,17.60
2019-05-10T14:40:27.946Z,17.90
2019-05-10T14:42:47.131Z,17.70
2019-05-10T14:45:14.807Z,17.60
2019-05-10T14:47:48.305Z,17.60
2019-05-10T14:50:11.990Z,17.60
2019-05-10T14:52:39.717Z,17.90
2019-05-10T14:55:07.186Z,17.90
2019-05-10T14:57:34.641Z,17.90
2019-05-10T15:00:04.966Z,17.90
2019-05-10T15:02:33.589Z,18.00
2019-05-10T15:05:01.831Z,18.00
2019-05-10T15:07:30.515Z,17.90
2019-05-10T15:10:00.427Z,17.70
2019-05-10T15:12:27.480Z,17.60
2019-05-10T15:14:54.988Z,17.70
2019-05-10T15:17:22.649Z,17.80
2019-05-10T15:19:57.322Z,17.90
2019-05-10T15:22:23.013Z,17.80
2019-05-10T15:24:49.326Z,17.70
2019-05-10T15:27:21.564Z,17.60
2019-05-10T15:29:46.543Z,17.80
2019-05-10T15:32:14.130Z,18.00
2019-05-10T15:34:41.670Z,18.00
2019-05-10T15:37:10.735Z,17.80
2019-05-10T15:39:38.531Z,17.80
2019-05-10T15:42:06.284Z,17.70
2019-05-10T15:44:34.122Z,17.80
2019-05-10T15:47:01.958Z,17.80
2019-05-10T15:49:29.456Z,17.60
2019-05-10T15:52:16.240Z,17.60
2019-05-10T15:54:26.354Z,17.50
2019-05-10T15:56:55.531Z,17.40
2019-05-10T15:59:24.096Z,17.40
2019-05-10T16:01:51.764Z,17.30
2019-05-10T16:04:19.309Z,17.20
2019-05-10T16:06:46.856Z,17.00
2019-05-10T16:09:17.628Z,16.80
2019-05-10T16:11:43.915Z,16.60
2019-05-10T16:14:11.365Z,16.40
2019-05-10T16:16:39.767Z,16.40
2019-05-10T16:19:07.542Z,16.40
2019-05-10T16:21:35.137Z,16.30
2019-05-10T16:24:03.005Z,16.20
2019-05-10T16:26:30.725Z,16.20
2019-05-10T16:29:01.859Z,16.20
2019-05-10T16:31:27.590Z,16.00
2019-05-10T16:33:55.744Z,15.90
2019-05-10T16:36:28.275Z,15.70
2019-05-10T16:38:54.236Z,15.50
2019-05-10T16:41:21.981Z,15.30
2019-05-10T16:43:51.587Z,15.30
2019-05-10T16:46:19.220Z,15.20
2019-05-10T16:48:46.689Z,15.20
2019-05-10T16:51:14.286Z,15.10
2019-05-10T16:53:43.786Z,15.00
2019-05-10T16:56:13.229Z,15.00
2019-05-10T16:58:40.977Z,14.90
2019-05-10T17:01:08.534Z,14.90
2019-05-10T17:03:35.996Z,14.80
2019-05-10T17:06:04.512Z,14.80
2019-05-10T17:08:36.748Z,14.80
2019-05-10T17:11:09.608Z,14.80
2019-05-10T17:13:36.519Z,14.80
2019-05-10T17:16:03.207Z,14.70
2019-05-10T17:18:30.992Z,14.70
2019-05-10T17:20:58.459Z,14.70
2019-05-10T17:23:26.052Z,14.60
2019-05-10T17:25:53.637Z,14.60
2019-05-10T17:28:21.114Z,14.60
2019-05-10T17:30:48.562Z,14.60
2019-05-10T17:33:16.137Z,14.50
2019-05-10T17:35:44.188Z,14.40
2019-05-10T17:38:14.256Z,14.40
2019-05-10T17:40:42.200Z,14.30
2019-05-10T17:43:14.336Z,14.30
2019-05-10T17:45:42.312Z,14.10
2019-05-10T17:48:10.202Z,14.20
2019-05-10T17:50:37.867Z,14.10
2019-05-10T17:53:05.330Z,14.10
2019-05-10T17:55:32.800Z,14.00
2019-05-10T17:58:00.385Z,13.90
2019-05-10T18:00:27.930Z,13.90
2019-05-10T18:02:55.600Z,13.90
2019-05-10T18:05:23.259Z,13.90
2019-05-10T18:07:50.923Z,13.80
2019-05-10T18:10:18.801Z,13.80
2019-05-10T18:12:46.550Z,13.70
2019-05-10T18:15:14.115Z,13.70
2019-05-10T18:17:41.808Z,13.60
2019-05-10T18:20:09.361Z,13.60
2019-05-10T18:22:43.251Z,13.40
2019-05-10T18:25:06.504Z,13.30
2019-05-10T18:27:34.471Z,13.10
2019-05-10T18:30:02.787Z,13.10
2019-05-10T18:32:35.414Z,12.90
2019-05-10T18:35:00.948Z,12.80
2019-05-10T18:37:29.728Z,12.60
2019-05-10T18:39:57.385Z,12.60
2019-05-10T18:42:25.851Z,12.50
2019-05-10T18:44:54.481Z,12.40
2019-05-10T18:47:21.962Z,12.40
2019-05-10T18:49:49.608Z,12.40
2019-05-10T18:52:17.789Z,12.30
2019-05-10T18:54:45.365Z,12.30
2019-05-10T18:57:18.828Z,12.30
2019-05-10T18:59:45.472Z,12.30
2019-05-10T19:02:18.030Z,12.30
2019-05-10T19:04:45.673Z,12.20
2019-05-10T19:07:12.566Z,12.20
2019-05-10T19:09:40.139Z,12.30
2019-05-10T19:12:17.769Z,12.30
2019-05-10T19:14:39.087Z,12.40
2019-05-10T19:17:09.459Z,12.20
2019-05-10T19:19:39.888Z,12.20
2019-05-10T19:22:08.969Z,12.10
2019-05-10T19:24:35.805Z,12.10
2019-05-10T19:27:07.452Z,12.00
2019-05-10T19:29:38.861Z,12.00
2019-05-10T19:32:02.382Z,12.00
2019-05-10T19:34:30.184Z,11.90
2019-05-10T19:36:59.586Z,11.80
2019-05-10T19:39:27.160Z,11.80
2019-05-10T19:42:02.903Z,11.70
2019-05-10T19:44:26.230Z,11.70
2019-05-10T19:46:54.040Z,11.60
2019-05-10T19:49:21.725Z,11.50
2019-05-10T19:51:50.442Z,11.50
2019-05-10T19:54:19.645Z,11.40
2019-05-10T19:56:47.526Z,11.40
2019-05-10T19:59:15.086Z,11.40
2019-05-10T20:01:45.150Z,11.30
2019-05-10T20:04:12.141Z,11.30
2019-05-10T20:06:39.701Z,11.20
2019-05-10T20:09:07.271Z,11.20
2019-05-10T20:11:34.860Z,11.20
2019-05-10T20:14:02.526Z,11.20
2019-05-10T20:16:30.080Z,11.20
2019-05-10T20:18:57.656Z,11.20
2019-05-10T20:21:25.209Z,11.20
2019-05-10T20:23:52.891Z,11.20
2019-05-10T20:26:20.547Z,11.70
2019-05-10T20:28:48.262Z,11.30
2019-05-10T20:31:16.050Z,11.70
2019-05-10T20:33:43.780Z,11.30
2019-05-10T20:36:11.375Z,11.20
2019-05-10T20:38:39.171Z,11.20
2019-05-10T20:41:06.862Z,11.20
2019-05-10T20:43:34.456Z,11.20
2019-05-10T20:46:01.948Z,11.30
2019-05-10T20:48:29.504Z,11.30
2019-05-10T20:50:57.182Z,11.30
2019-05-10T20:53:24.895Z,11.40
2019-05-10T20:55:52.531Z,11.30
2019-05-10T20:58:20.223Z,11.30
2019-05-10T21:00:47.797Z,11.30
2019-05-10T21:03:15.329Z,11.30
2019-05-10T21:05:43.902Z,11.30
2019-05-10T21:08:17.019Z,11.30
2019-05-10T21:10:40.918Z,11.30
2019-05-10T21:13:08.391Z,11.00
2019-05-10T21:15:35.883Z,11.20
2019-05-10T21:18:03.470Z,11.20
2019-05-10T21:20:31.053Z,10.70
2019-05-10T21:22:58.663Z,11.10
2019-05-10T21:25:26.098Z,12.00
2019-05-10T21:27:53.574Z,11.00
2019-05-10T21:30:21.176Z,11.00
2019-05-10T21:32:48.667Z,11.00
2019-05-10T21:35:16.277Z,11.40
2019-05-10T21:37:44.039Z,10.90
2019-05-10T21:40:11.805Z,10.90
2019-05-10T21:42:39.459Z,10.90
2019-05-10T21:45:07.269Z,10.90
2019-05-10T21:47:50.387Z,10.90
2019-05-10T21:50:04.844Z,10.90
2019-05-10T21:52:32.663Z,12.10
2019-05-10T21:55:00.367Z,11.00
2019-05-10T21:57:28.115Z,11.00
2019-05-10T21:59:56.540Z,11.10
2019-05-10T22:02:24.925Z,11.10
2019-05-10T22:04:53.151Z,11.10
2019-05-10T22:07:22.648Z,11.10
2019-05-10T22:09:50.568Z,11.10
2019-05-10T22:12:18.255Z,11.10
2019-05-10T22:14:46.064Z,11.10
2019-05-10T22:17:14.059Z,11.10
2019-05-10T22:19:41.961Z,11.10
2019-05-10T22:22:09.755Z,11.10
2019-05-10T22:24:37.558Z,11.10
2019-05-10T22:27:25.822Z,11.10
2019-05-10T22:29:53.529Z,11.20
2019-05-10T22:32:21.373Z,11.00
2019-05-10T22:34:49.050Z,11.00
2019-05-10T22:37:16.651Z,11.00
2019-05-10T22:39:44.276Z,11.50
2019-05-10T22:42:11.959Z,11.00
2019-05-10T22:44:39.561Z,11.60
2019-05-10T22:47:07.146Z,11.00
2019-05-10T22:49:34.746Z,11.00
2019-05-10T22:52:02.447Z,11.00
2019-05-10T22:54:30.160Z,11.00
2019-05-10T22:56:57.840Z,10.90
2019-05-10T22:59:25.711Z,10.90
2019-05-10T23:01:53.457Z,10.90
2019-05-10T23:04:21.166Z,10.90
2019-05-10T23:06:48.890Z,10.80
2019-05-10T23:09:24.528Z,10.70
2019-05-10T23:11:46.214Z,10.80
2019-05-10T23:14:13.949Z,11.00
2019-05-10T23:16:41.652Z,10.70
2019-05-10T23:19:09.252Z,11.00
2019-05-10T23:21:37.057Z,10.80
2019-05-10T23:24:08.000Z,10.80
2019-05-10T23:26:35.767Z,10.80
2019-05-10T23:29:03.355Z,10.90
2019-05-10T23:31:31.072Z,10.90
2019-05-10T23:33:58.841Z,11.90
2019-05-10T23:36:26.934Z,11.00
2019-05-10T23:38:54.640Z,11.50
2019-05-10T23:41:22.367Z,11.00
2019-05-10T23:43:50.017Z,11.00
2019-05-10T23:46:17.612Z,11.00
2019-05-10T23:48:45.305Z,11.10
2019-05-10T23:51:13.009Z,11.00
2019-05-10T23:53:40.607Z,11.00
2019-05-10T23:56:09.427Z,11.00
2019-05-10T23:58:37.197Z,11.00
